sensor_id;sensor_type;location;lat;lon;timestamp;P1;durP1;ratioP1;P2;durP2;ratioP2
12312;SDS011;6220;53.580;9.758;2024-02-14T00:01:47;4.03;;;2.40;;
12312;SDS011;6220;53.580;9.758;2024-02-14T00:04:13;5.93;;;2.40;;
12312;SDS011;6220;53.580;9.758;2024-02-14T00:06:39;3.63;;;2.20;;
12312;SDS011;6220;53.580;9.758;2024-02-14T00:09:04;6.73;;;2.20;;
12312;SDS011;6220;53.580;9.758;2024-02-14T00:11:31;5.07;;;2.30;;
12312;SDS011;6220;53.580;9.758;2024-02-14T00:13:57;4.93;;;2.27;;
12312;SDS011;6220;53.580;9.758;2024-02-14T00:16:23;5.60;;;2.13;;
12312;SDS011;6220;53.580;9.758;2024-02-14T00:18:49;6.47;;;3.90;;
12312;SDS011;6220;53.580;9.758;2024-02-14T00:21:14;5.43;;;2.43;;
12312;SDS011;6220;53.580;9.758;2024-02-14T00:23:40;4.47;;;2.30;;
12312;SDS011;6220;53.580;9.758;2024-02-14T00:26:05;5.13;;;2.50;;
12312;SDS011;6220;53.580;9.758;2024-02-14T00:28:30;3.47;;;2.00;;
12312;SDS011;6220;53.580;9.758;2024-02-14T00:30:56;3.30;;;2.17;;
12312;SDS011;6220;53.580;9.758;2024-02-14T00:33:23;4.50;;;2.43;;
12312;SDS011;6220;53.580;9.758;2024-02-14T00:35:48;2.57;;;2.30;;
12312;SDS011;6220;53.580;9.758;2024-02-14T00:38:14;3.87;;;2.60;;
12312;SDS011;6220;53.580;9.758;2024-02-14T00:40:39;4.87;;;2.63;;
12312;SDS011;6220;53.580;9.758;2024-02-14T00:43:04;3.73;;;2.30;;
12312;SDS011;6220;53.580;9.758;2024-02-14T00:45:30;4.07;;;2.50;;
12312;SDS011;6220;53.580;9.758;2024-02-14T00:47:55;4.50;;;2.40;;
12312;SDS011;6220;53.580;9.758;2024-02-14T00:50:22;6.23;;;2.33;;
12312;SDS011;6220;53.580;9.758;2024-02-14T00:52:47;6.10;;;2.70;;
12312;SDS011;6220;53.580;9.758;2024-02-14T00:55:12;5.63;;;2.80;;
12312;SDS011;6220;53.580;9.758;2024-02-14T00:57:38;5.73;;;3.20;;
12312;SDS011;6220;53.580;9.758;2024-02-14T01:00:03;3.30;;;2.50;;
12312;SDS011;6220;53.580;9.758;2024-02-14T01:02:31;3.63;;;2.50;;
12312;SDS011;6220;53.580;9.758;2024-02-14T01:04:56;3.73;;;2.43;;
12312;SDS011;6220;53.580;9.758;2024-02-14T01:07:21;4.10;;;2.37;;
12312;SDS011;6220;53.580;9.758;2024-02-14T01:09:47;4.37;;;2.60;;
12312;SDS011;6220;53.580;9.758;2024-02-14T01:12:13;5.93;;;2.27;;
12312;SDS011;6220;53.580;9.758;2024-02-14T01:14:38;5.80;;;2.80;;
12312;SDS011;6220;53.580;9.758;2024-02-14T01:17:03;3.37;;;2.40;;
12312;SDS011;6220;53.580;9.758;2024-02-14T01:19:29;5.13;;;2.67;;
12312;SDS011;6220;53.580;9.758;2024-02-14T01:21:55;5.10;;;3.70;;
12312;SDS011;6220;53.580;9.758;2024-02-14T01:24:22;7.17;;;4.70;;
12312;SDS011;6220;53.580;9.758;2024-02-14T01:26:47;3.00;;;2.33;;
12312;SDS011;6220;53.580;9.758;2024-02-14T01:29:14;7.43;;;2.63;;
12312;SDS011;6220;53.580;9.758;2024-02-14T01:31:41;5.50;;;2.50;;
12312;SDS011;6220;53.580;9.758;2024-02-14T01:34:07;6.27;;;2.80;;
12312;SDS011;6220;53.580;9.758;2024-02-14T01:36:32;5.70;;;2.80;;
12312;SDS011;6220;53.580;9.758;2024-02-14T01:38:57;3.90;;;2.67;;
12312;SDS011;6220;53.580;9.758;2024-02-14T01:41:23;3.30;;;2.50;;
12312;SDS011;6220;53.580;9.758;2024-02-14T01:43:49;4.60;;;3.00;;
12312;SDS011;6220;53.580;9.758;2024-02-14T01:46:15;4.47;;;2.80;;
12312;SDS011;6220;53.580;9.758;2024-02-14T01:48:41;3.87;;;2.60;;
12312;SDS011;6220;53.580;9.758;2024-02-14T01:51:07;4.90;;;2.70;;
12312;SDS011;6220;53.580;9.758;2024-02-14T01:53:34;4.73;;;2.53;;
12312;SDS011;6220;53.580;9.758;2024-02-14T01:56:00;5.37;;;2.77;;
12312;SDS011;6220;53.580;9.758;2024-02-14T01:58:26;5.83;;;3.03;;
12312;SDS011;6220;53.580;9.758;2024-02-14T02:00:53;5.43;;;2.80;;
12312;SDS011;6220;53.580;9.758;2024-02-14T02:03:25;5.43;;;3.00;;
12312;SDS011;6220;53.580;9.758;2024-02-14T02:05:53;6.83;;;3.10;;
12312;SDS011;6220;53.580;9.758;2024-02-14T02:08:19;4.77;;;2.60;;
12312;SDS011;6220;53.580;9.758;2024-02-14T02:10:45;6.83;;;3.10;;
12312;SDS011;6220;53.580;9.758;2024-02-14T02:13:10;6.57;;;2.87;;
12312;SDS011;6220;53.580;9.758;2024-02-14T02:15:36;3.17;;;2.60;;
12312;SDS011;6220;53.580;9.758;2024-02-14T02:18:02;6.37;;;3.17;;
12312;SDS011;6220;53.580;9.758;2024-02-14T02:20:30;3.00;;;2.70;;
12312;SDS011;6220;53.580;9.758;2024-02-14T02:22:57;8.30;;;3.03;;
12312;SDS011;6220;53.580;9.758;2024-02-14T02:25:22;6.07;;;3.00;;
12312;SDS011;6220;53.580;9.758;2024-02-14T02:27:51;3.33;;;3.03;;
12312;SDS011;6220;53.580;9.758;2024-02-14T02:30:16;5.63;;;3.30;;
12312;SDS011;6220;53.580;9.758;2024-02-14T02:32:42;5.50;;;2.90;;
12312;SDS011;6220;53.580;9.758;2024-02-14T02:35:07;6.63;;;3.33;;
12312;SDS011;6220;53.580;9.758;2024-02-14T02:37:34;7.60;;;3.00;;
12312;SDS011;6220;53.580;9.758;2024-02-14T02:40:00;6.53;;;3.00;;
12312;SDS011;6220;53.580;9.758;2024-02-14T02:42:25;4.47;;;2.97;;
12312;SDS011;6220;53.580;9.758;2024-02-14T02:44:51;5.33;;;2.83;;
12312;SDS011;6220;53.580;9.758;2024-02-14T02:47:16;4.67;;;3.00;;
12312;SDS011;6220;53.580;9.758;2024-02-14T02:49:45;5.10;;;3.50;;
12312;SDS011;6220;53.580;9.758;2024-02-14T02:52:10;5.30;;;2.93;;
12312;SDS011;6220;53.580;9.758;2024-02-14T02:54:37;5.17;;;3.47;;
12312;SDS011;6220;53.580;9.758;2024-02-14T02:57:06;3.37;;;2.73;;
12312;SDS011;6220;53.580;9.758;2024-02-14T02:59:32;6.03;;;3.50;;
12312;SDS011;6220;53.580;9.758;2024-02-14T03:01:57;4.67;;;2.97;;
12312;SDS011;6220;53.580;9.758;2024-02-14T03:04:24;5.57;;;3.23;;
12312;SDS011;6220;53.580;9.758;2024-02-14T03:06:49;6.27;;;3.03;;
12312;SDS011;6220;53.580;9.758;2024-02-14T03:09:15;4.03;;;2.90;;
12312;SDS011;6220;53.580;9.758;2024-02-14T03:11:40;6.27;;;3.23;;
12312;SDS011;6220;53.580;9.758;2024-02-14T03:14:05;4.53;;;2.90;;
12312;SDS011;6220;53.580;9.758;2024-02-14T03:16:33;4.67;;;2.90;;
12312;SDS011;6220;53.580;9.758;2024-02-14T03:18:58;5.70;;;3.07;;
12312;SDS011;6220;53.580;9.758;2024-02-14T03:21:24;5.60;;;3.30;;
12312;SDS011;6220;53.580;9.758;2024-02-14T03:23:50;9.93;;;3.30;;
12312;SDS011;6220;53.580;9.758;2024-02-14T03:26:15;4.03;;;3.00;;
12312;SDS011;6220;53.580;9.758;2024-02-14T03:28:40;3.97;;;3.07;;
12312;SDS011;6220;53.580;9.758;2024-02-14T03:31:06;3.57;;;2.80;;
12312;SDS011;6220;53.580;9.758;2024-02-14T03:33:31;4.17;;;3.10;;
12312;SDS011;6220;53.580;9.758;2024-02-14T03:35:56;5.87;;;3.07;;
12312;SDS011;6220;53.580;9.758;2024-02-14T03:38:26;5.07;;;3.10;;
12312;SDS011;6220;53.580;9.758;2024-02-14T03:40:51;4.33;;;3.37;;
12312;SDS011;6220;53.580;9.758;2024-02-14T03:43:17;4.83;;;3.00;;
12312;SDS011;6220;53.580;9.758;2024-02-14T03:45:42;6.43;;;3.17;;
12312;SDS011;6220;53.580;9.758;2024-02-14T03:48:08;4.07;;;3.10;;
12312;SDS011;6220;53.580;9.758;2024-02-14T03:50:34;4.10;;;3.27;;
12312;SDS011;6220;53.580;9.758;2024-02-14T03:53:00;3.40;;;3.10;;
12312;SDS011;6220;53.580;9.758;2024-02-14T03:55:26;3.83;;;2.87;;
12312;SDS011;6220;53.580;9.758;2024-02-14T03:57:52;4.13;;;2.90;;
12312;SDS011;6220;53.580;9.758;2024-02-14T04:00:17;6.23;;;3.20;;
12312;SDS011;6220;53.580;9.758;2024-02-14T04:02:43;6.87;;;3.50;;
12312;SDS011;6220;53.580;9.758;2024-02-14T04:05:08;4.17;;;3.20;;
12312;SDS011;6220;53.580;9.758;2024-02-14T04:07:34;4.83;;;3.13;;
12312;SDS011;6220;53.580;9.758;2024-02-14T04:09:59;5.63;;;3.20;;
12312;SDS011;6220;53.580;9.758;2024-02-14T04:12:25;5.93;;;3.20;;
12312;SDS011;6220;53.580;9.758;2024-02-14T04:14:50;6.30;;;2.97;;
12312;SDS011;6220;53.580;9.758;2024-02-14T04:17:15;4.93;;;2.83;;
12312;SDS011;6220;53.580;9.758;2024-02-14T04:19:41;3.87;;;2.90;;
12312;SDS011;6220;53.580;9.758;2024-02-14T04:22:07;4.10;;;3.23;;
12312;SDS011;6220;53.580;9.758;2024-02-14T04:24:33;4.73;;;3.23;;
12312;SDS011;6220;53.580;9.758;2024-02-14T04:26:59;5.10;;;3.57;;
12312;SDS011;6220;53.580;9.758;2024-02-14T04:29:26;5.07;;;3.23;;
12312;SDS011;6220;53.580;9.758;2024-02-14T04:31:53;5.13;;;3.27;;
12312;SDS011;6220;53.580;9.758;2024-02-14T04:34:18;5.57;;;3.60;;
12312;SDS011;6220;53.580;9.758;2024-02-14T04:36:44;4.70;;;3.73;;
12312;SDS011;6220;53.580;9.758;2024-02-14T04:39:09;6.90;;;3.37;;
12312;SDS011;6220;53.580;9.758;2024-02-14T04:41:35;6.70;;;3.70;;
12312;SDS011;6220;53.580;9.758;2024-02-14T04:44:02;6.07;;;3.53;;
12312;SDS011;6220;53.580;9.758;2024-02-14T04:46:31;5.10;;;3.50;;
12312;SDS011;6220;53.580;9.758;2024-02-14T04:48:56;6.07;;;3.23;;
12312;SDS011;6220;53.580;9.758;2024-02-14T04:51:22;7.03;;;3.57;;
12312;SDS011;6220;53.580;9.758;2024-02-14T04:53:47;5.67;;;3.83;;
12312;SDS011;6220;53.580;9.758;2024-02-14T04:56:12;4.63;;;3.33;;
12312;SDS011;6220;53.580;9.758;2024-02-14T04:58:38;5.20;;;3.20;;
12312;SDS011;6220;53.580;9.758;2024-02-14T05:01:03;7.37;;;3.20;;
12312;SDS011;6220;53.580;9.758;2024-02-14T05:03:29;5.90;;;3.30;;
12312;SDS011;6220;53.580;9.758;2024-02-14T05:05:54;6.60;;;3.30;;
12312;SDS011;6220;53.580;9.758;2024-02-14T05:08:19;5.93;;;3.50;;
12312;SDS011;6220;53.580;9.758;2024-02-14T05:10:45;3.90;;;3.30;;
12312;SDS011;6220;53.580;9.758;2024-02-14T05:13:11;5.23;;;3.20;;
12312;SDS011;6220;53.580;9.758;2024-02-14T05:15:36;4.43;;;3.10;;
12312;SDS011;6220;53.580;9.758;2024-02-14T05:18:01;4.17;;;3.67;;
12312;SDS011;6220;53.580;9.758;2024-02-14T05:20:28;5.47;;;3.80;;
12312;SDS011;6220;53.580;9.758;2024-02-14T05:22:53;5.23;;;3.80;;
12312;SDS011;6220;53.580;9.758;2024-02-14T05:25:19;3.60;;;3.20;;
12312;SDS011;6220;53.580;9.758;2024-02-14T05:27:44;4.33;;;3.43;;
12312;SDS011;6220;53.580;9.758;2024-02-14T05:30:12;4.67;;;3.67;;
12312;SDS011;6220;53.580;9.758;2024-02-14T05:32:37;4.83;;;3.70;;
12312;SDS011;6220;53.580;9.758;2024-02-14T05:35:04;4.00;;;3.17;;
12312;SDS011;6220;53.580;9.758;2024-02-14T05:37:31;4.63;;;3.40;;
12312;SDS011;6220;53.580;9.758;2024-02-14T05:39:56;4.13;;;3.43;;
12312;SDS011;6220;53.580;9.758;2024-02-14T05:42:22;3.57;;;2.93;;
12312;SDS011;6220;53.580;9.758;2024-02-14T05:44:47;4.07;;;3.37;;
12312;SDS011;6220;53.580;9.758;2024-02-14T05:47:13;3.60;;;2.87;;
12312;SDS011;6220;53.580;9.758;2024-02-14T05:49:39;3.93;;;3.07;;
12312;SDS011;6220;53.580;9.758;2024-02-14T05:52:05;5.17;;;3.37;;
12312;SDS011;6220;53.580;9.758;2024-02-14T05:54:33;3.93;;;2.83;;
12312;SDS011;6220;53.580;9.758;2024-02-14T05:57:01;3.30;;;3.00;;
12312;SDS011;6220;53.580;9.758;2024-02-14T05:59:30;3.30;;;2.90;;
12312;SDS011;6220;53.580;9.758;2024-02-14T06:01:57;4.27;;;3.27;;
12312;SDS011;6220;53.580;9.758;2024-02-14T06:04:22;3.10;;;2.80;;
12312;SDS011;6220;53.580;9.758;2024-02-14T06:06:47;3.17;;;2.87;;
12312;SDS011;6220;53.580;9.758;2024-02-14T06:09:13;4.13;;;3.27;;
12312;SDS011;6220;53.580;9.758;2024-02-14T06:11:38;3.37;;;2.93;;
12312;SDS011;6220;53.580;9.758;2024-02-14T06:14:07;4.20;;;3.07;;
12312;SDS011;6220;53.580;9.758;2024-02-14T06:16:33;2.93;;;2.73;;
12312;SDS011;6220;53.580;9.758;2024-02-14T06:18:59;3.63;;;2.90;;
12312;SDS011;6220;53.580;9.758;2024-02-14T06:21:24;3.97;;;3.30;;
12312;SDS011;6220;53.580;9.758;2024-02-14T06:23:50;3.10;;;2.90;;
12312;SDS011;6220;53.580;9.758;2024-02-14T06:26:16;3.33;;;3.03;;
12312;SDS011;6220;53.580;9.758;2024-02-14T06:28:42;3.17;;;2.87;;
12312;SDS011;6220;53.580;9.758;2024-02-14T06:31:08;3.07;;;2.80;;
12312;SDS011;6220;53.580;9.758;2024-02-14T06:33:34;3.33;;;3.03;;
12312;SDS011;6220;53.580;9.758;2024-02-14T06:36:00;3.30;;;3.00;;
12312;SDS011;6220;53.580;9.758;2024-02-14T06:38:25;2.83;;;2.63;;
12312;SDS011;6220;53.580;9.758;2024-02-14T06:40:51;3.37;;;3.07;;
12312;SDS011;6220;53.580;9.758;2024-02-14T06:43:16;2.80;;;2.60;;
12312;SDS011;6220;53.580;9.758;2024-02-14T06:45:41;3.40;;;3.10;;
12312;SDS011;6220;53.580;9.758;2024-02-14T06:48:07;3.40;;;3.10;;
12312;SDS011;6220;53.580;9.758;2024-02-14T06:50:33;4.70;;;3.13;;
12312;SDS011;6220;53.580;9.758;2024-02-14T06:52:59;3.97;;;3.57;;
12312;SDS011;6220;53.580;9.758;2024-02-14T06:55:25;3.70;;;3.30;;
12312;SDS011;6220;53.580;9.758;2024-02-14T06:57:55;3.53;;;3.23;;
12312;SDS011;6220;53.580;9.758;2024-02-14T07:00:21;4.50;;;3.47;;
12312;SDS011;6220;53.580;9.758;2024-02-14T07:02:46;4.60;;;3.67;;
12312;SDS011;6220;53.580;9.758;2024-02-14T07:05:13;3.97;;;3.57;;
12312;SDS011;6220;53.580;9.758;2024-02-14T07:07:39;3.83;;;3.50;;
12312;SDS011;6220;53.580;9.758;2024-02-14T07:10:05;5.83;;;3.90;;
12312;SDS011;6220;53.580;9.758;2024-02-14T07:12:31;4.53;;;4.07;;
12312;SDS011;6220;53.580;9.758;2024-02-14T07:14:56;3.87;;;3.50;;
12312;SDS011;6220;53.580;9.758;2024-02-14T07:17:22;3.30;;;3.00;;
12312;SDS011;6220;53.580;9.758;2024-02-14T07:19:47;4.00;;;3.60;;
12312;SDS011;6220;53.580;9.758;2024-02-14T07:22:14;3.90;;;3.60;;
12312;SDS011;6220;53.580;9.758;2024-02-14T07:24:41;3.90;;;3.57;;
12312;SDS011;6220;53.580;9.758;2024-02-14T07:27:06;3.67;;;3.37;;
12312;SDS011;6220;53.580;9.758;2024-02-14T07:29:32;6.03;;;3.70;;
12312;SDS011;6220;53.580;9.758;2024-02-14T07:31:58;4.13;;;3.67;;
12312;SDS011;6220;53.580;9.758;2024-02-14T07:34:26;4.40;;;4.00;;
12312;SDS011;6220;53.580;9.758;2024-02-14T07:36:51;4.43;;;3.83;;
12312;SDS011;6220;53.580;9.758;2024-02-14T07:39:17;4.17;;;3.77;;
12312;SDS011;6220;53.580;9.758;2024-02-14T07:41:42;4.20;;;3.83;;
12312;SDS011;6220;53.580;9.758;2024-02-14T07:44:07;4.33;;;3.50;;
12312;SDS011;6220;53.580;9.758;2024-02-14T07:46:33;3.83;;;3.43;;
12312;SDS011;6220;53.580;9.758;2024-02-14T07:48:58;5.13;;;3.40;;
12312;SDS011;6220;53.580;9.758;2024-02-14T07:51:23;3.90;;;3.50;;
12312;SDS011;6220;53.580;9.758;2024-02-14T07:53:50;4.17;;;3.73;;
12312;SDS011;6220;53.580;9.758;2024-02-14T07:56:16;3.97;;;3.57;;
12312;SDS011;6220;53.580;9.758;2024-02-14T07:58:43;3.70;;;3.40;;
12312;SDS011;6220;53.580;9.758;2024-02-14T08:01:08;4.03;;;3.70;;
12312;SDS011;6220;53.580;9.758;2024-02-14T08:03:34;4.30;;;3.90;;
12312;SDS011;6220;53.580;9.758;2024-02-14T08:05:59;4.40;;;3.90;;
12312;SDS011;6220;53.580;9.758;2024-02-14T08:08:25;7.40;;;3.87;;
12312;SDS011;6220;53.580;9.758;2024-02-14T08:10:52;3.80;;;3.40;;
12312;SDS011;6220;53.580;9.758;2024-02-14T08:13:18;4.33;;;3.93;;
12312;SDS011;6220;53.580;9.758;2024-02-14T08:15:43;3.90;;;3.50;;
12312;SDS011;6220;53.580;9.758;2024-02-14T08:18:08;3.53;;;3.23;;
12312;SDS011;6220;53.580;9.758;2024-02-14T08:20:34;3.70;;;3.33;;
12312;SDS011;6220;53.580;9.758;2024-02-14T08:22:59;3.97;;;3.67;;
12312;SDS011;6220;53.580;9.758;2024-02-14T08:25:24;4.20;;;3.67;;
12312;SDS011;6220;53.580;9.758;2024-02-14T08:27:50;5.00;;;4.20;;
12312;SDS011;6220;53.580;9.758;2024-02-14T08:30:16;4.10;;;3.70;;
12312;SDS011;6220;53.580;9.758;2024-02-14T08:32:42;4.40;;;4.00;;
12312;SDS011;6220;53.580;9.758;2024-02-14T08:35:07;3.57;;;3.27;;
12312;SDS011;6220;53.580;9.758;2024-02-14T08:37:34;4.40;;;4.00;;
12312;SDS011;6220;53.580;9.758;2024-02-14T08:40:02;4.90;;;4.13;;
12312;SDS011;6220;53.580;9.758;2024-02-14T08:42:30;4.20;;;3.80;;
12312;SDS011;6220;53.580;9.758;2024-02-14T08:44:56;4.50;;;4.10;;
12312;SDS011;6220;53.580;9.758;2024-02-14T08:47:21;4.80;;;4.33;;
12312;SDS011;6220;53.580;9.758;2024-02-14T08:49:46;4.23;;;3.93;;
12312;SDS011;6220;53.580;9.758;2024-02-14T08:52:12;4.17;;;3.60;;
12312;SDS011;6220;53.580;9.758;2024-02-14T08:54:37;4.17;;;3.77;;
12312;SDS011;6220;53.580;9.758;2024-02-14T08:57:03;4.43;;;4.03;;
12312;SDS011;6220;53.580;9.758;2024-02-14T08:59:28;4.40;;;3.93;;
12312;SDS011;6220;53.580;9.758;2024-02-14T09:01:54;4.00;;;3.70;;
12312;SDS011;6220;53.580;9.758;2024-02-14T09:04:19;4.87;;;4.30;;
12312;SDS011;6220;53.580;9.758;2024-02-14T09:06:44;4.53;;;3.90;;
12312;SDS011;6220;53.580;9.758;2024-02-14T09:09:10;4.53;;;4.13;;
12312;SDS011;6220;53.580;9.758;2024-02-14T09:11:36;6.47;;;4.40;;
12312;SDS011;6220;53.580;9.758;2024-02-14T09:14:02;5.37;;;4.40;;
12312;SDS011;6220;53.580;9.758;2024-02-14T09:16:31;4.40;;;4.00;;
12312;SDS011;6220;53.580;9.758;2024-02-14T09:18:58;4.37;;;3.97;;
12312;SDS011;6220;53.580;9.758;2024-02-14T09:21:23;4.67;;;4.23;;
12312;SDS011;6220;53.580;9.758;2024-02-14T09:23:50;4.20;;;3.83;;
12312;SDS011;6220;53.580;9.758;2024-02-14T09:26:16;4.33;;;4.00;;
12312;SDS011;6220;53.580;9.758;2024-02-14T09:28:42;3.50;;;3.20;;
12312;SDS011;6220;53.580;9.758;2024-02-14T09:31:09;6.07;;;3.93;;
12312;SDS011;6220;53.580;9.758;2024-02-14T09:33:36;4.33;;;3.93;;
12312;SDS011;6220;53.580;9.758;2024-02-14T09:36:02;3.97;;;3.67;;
12312;SDS011;6220;53.580;9.758;2024-02-14T09:38:29;4.70;;;4.30;;
12312;SDS011;6220;53.580;9.758;2024-02-14T09:40:55;4.13;;;3.83;;
12312;SDS011;6220;53.580;9.758;2024-02-14T09:45:51;4.73;;;4.33;;
12312;SDS011;6220;53.580;9.758;2024-02-14T09:48:19;4.40;;;4.03;;
12312;SDS011;6220;53.580;9.758;2024-02-14T09:50:44;4.67;;;4.27;;
12312;SDS011;6220;53.580;9.758;2024-02-14T09:53:10;4.33;;;3.93;;
12312;SDS011;6220;53.580;9.758;2024-02-14T09:55:37;4.33;;;3.97;;
12312;SDS011;6220;53.580;9.758;2024-02-14T09:58:03;3.83;;;3.53;;
12312;SDS011;6220;53.580;9.758;2024-02-14T10:00:31;4.20;;;3.80;;
12312;SDS011;6220;53.580;9.758;2024-02-14T10:02:58;4.10;;;3.73;;
12312;SDS011;6220;53.580;9.758;2024-02-14T10:05:24;4.27;;;3.87;;
12312;SDS011;6220;53.580;9.758;2024-02-14T10:07:50;4.77;;;4.37;;
12312;SDS011;6220;53.580;9.758;2024-02-14T10:10:15;4.57;;;4.17;;
12312;SDS011;6220;53.580;9.758;2024-02-14T10:12:42;4.77;;;3.93;;
12312;SDS011;6220;53.580;9.758;2024-02-14T10:15:08;4.03;;;3.70;;
12312;SDS011;6220;53.580;9.758;2024-02-14T10:17:33;4.17;;;3.77;;
12312;SDS011;6220;53.580;9.758;2024-02-14T10:19:59;4.17;;;3.87;;
12312;SDS011;6220;53.580;9.758;2024-02-14T10:22:32;3.90;;;3.60;;
12312;SDS011;6220;53.580;9.758;2024-02-14T10:25:02;4.40;;;4.00;;
12312;SDS011;6220;53.580;9.758;2024-02-14T10:27:29;3.90;;;3.60;;
12312;SDS011;6220;53.580;9.758;2024-02-14T10:29:57;4.10;;;3.70;;
12312;SDS011;6220;53.580;9.758;2024-02-14T10:32:22;4.63;;;4.23;;
12312;SDS011;6220;53.580;9.758;2024-02-14T10:34:49;4.37;;;3.97;;
12312;SDS011;6220;53.580;9.758;2024-02-14T10:37:15;4.50;;;4.10;;
12312;SDS011;6220;53.580;9.758;2024-02-14T10:39:43;4.27;;;3.97;;
12312;SDS011;6220;53.580;9.758;2024-02-14T10:42:11;4.50;;;4.10;;
12312;SDS011;6220;53.580;9.758;2024-02-14T10:44:37;4.07;;;3.77;;
12312;SDS011;6220;53.580;9.758;2024-02-14T10:47:03;4.23;;;3.93;;
12312;SDS011;6220;53.580;9.758;2024-02-14T10:49:32;5.00;;;4.60;;
12312;SDS011;6220;53.580;9.758;2024-02-14T10:51:58;4.77;;;4.37;;
12312;SDS011;6220;53.580;9.758;2024-02-14T10:54:29;4.57;;;4.20;;
12312;SDS011;6220;53.580;9.758;2024-02-14T10:56:55;4.77;;;4.37;;
12312;SDS011;6220;53.580;9.758;2024-02-14T10:59:23;4.70;;;4.30;;
12312;SDS011;6220;53.580;9.758;2024-02-14T11:01:49;8.47;;;4.80;;
12312;SDS011;6220;53.580;9.758;2024-02-14T11:04:14;4.60;;;4.20;;
12312;SDS011;6220;53.580;9.758;2024-02-14T11:06:47;5.57;;;5.07;;
12312;SDS011;6220;53.580;9.758;2024-02-14T11:09:13;5.37;;;4.87;;
12312;SDS011;6220;53.580;9.758;2024-02-14T11:11:44;5.23;;;4.83;;
12312;SDS011;6220;53.580;9.758;2024-02-14T11:14:13;5.27;;;4.77;;
12312;SDS011;6220;53.580;9.758;2024-02-14T11:16:40;8.13;;;5.57;;
12312;SDS011;6220;53.580;9.758;2024-02-14T11:19:09;5.87;;;5.37;;
12312;SDS011;6220;53.580;9.758;2024-02-14T11:21:47;6.17;;;5.57;;
12312;SDS011;6220;53.580;9.758;2024-02-14T11:24:13;5.33;;;4.83;;
12312;SDS011;6220;53.580;9.758;2024-02-14T11:26:47;5.30;;;4.90;;
12312;SDS011;6220;53.580;9.758;2024-02-14T11:29:15;6.20;;;5.60;;
12312;SDS011;6220;53.580;9.758;2024-02-14T11:31:44;6.27;;;5.67;;
12312;SDS011;6220;53.580;9.758;2024-02-14T11:34:12;5.70;;;5.20;;
12312;SDS011;6220;53.580;9.758;2024-02-14T11:36:39;5.80;;;5.30;;
12312;SDS011;6220;53.580;9.758;2024-02-14T11:39:06;5.70;;;5.10;;
12312;SDS011;6220;53.580;9.758;2024-02-14T11:41:33;5.77;;;5.27;;
12312;SDS011;6220;53.580;9.758;2024-02-14T11:44:06;5.73;;;5.17;;
12312;SDS011;6220;53.580;9.758;2024-02-14T11:46:31;5.27;;;4.87;;
12312;SDS011;6220;53.580;9.758;2024-02-14T11:48:57;4.80;;;4.40;;
12312;SDS011;6220;53.580;9.758;2024-02-14T11:51:25;5.00;;;4.60;;
12312;SDS011;6220;53.580;9.758;2024-02-14T11:53:52;5.43;;;4.30;;
12312;SDS011;6220;53.580;9.758;2024-02-14T11:56:17;4.77;;;4.37;;
12312;SDS011;6220;53.580;9.758;2024-02-14T11:58:43;4.23;;;3.70;;
12312;SDS011;6220;53.580;9.758;2024-02-14T12:01:08;5.27;;;4.77;;
12312;SDS011;6220;53.580;9.758;2024-02-14T12:03:34;4.07;;;3.77;;
12312;SDS011;6220;53.580;9.758;2024-02-14T12:06:00;5.20;;;4.70;;
12312;SDS011;6220;53.580;9.758;2024-02-14T12:08:29;5.83;;;4.23;;
12312;SDS011;6220;53.580;9.758;2024-02-14T12:10:54;4.63;;;4.23;;
12312;SDS011;6220;53.580;9.758;2024-02-14T12:13:20;4.33;;;3.93;;
12312;SDS011;6220;53.580;9.758;2024-02-14T12:15:47;4.90;;;4.30;;
12312;SDS011;6220;53.580;9.758;2024-02-14T12:18:13;4.87;;;4.10;;
12312;SDS011;6220;53.580;9.758;2024-02-14T12:20:40;4.23;;;3.90;;
12312;SDS011;6220;53.580;9.758;2024-02-14T12:23:06;4.23;;;3.93;;
12312;SDS011;6220;53.580;9.758;2024-02-14T12:25:32;4.73;;;4.27;;
12312;SDS011;6220;53.580;9.758;2024-02-14T12:27:58;5.00;;;4.60;;
12312;SDS011;6220;53.580;9.758;2024-02-14T12:30:28;4.80;;;4.40;;
12312;SDS011;6220;53.580;9.758;2024-02-14T12:33:09;5.57;;;5.07;;
12312;SDS011;6220;53.580;9.758;2024-02-14T12:35:36;6.03;;;5.43;;
12312;SDS011;6220;53.580;9.758;2024-02-14T12:38:08;6.10;;;5.50;;
12312;SDS011;6220;53.580;9.758;2024-02-14T12:40:37;6.20;;;5.60;;
12312;SDS011;6220;53.580;9.758;2024-02-14T12:43:19;6.83;;;5.87;;
12312;SDS011;6220;53.580;9.758;2024-02-14T12:45:45;7.37;;;6.47;;
12312;SDS011;6220;53.580;9.758;2024-02-14T12:48:11;7.37;;;6.67;;
12312;SDS011;6220;53.580;9.758;2024-02-14T12:50:39;7.77;;;7.00;;
12312;SDS011;6220;53.580;9.758;2024-02-14T12:53:21;7.57;;;6.77;;
12312;SDS011;6220;53.580;9.758;2024-02-14T12:55:47;6.63;;;6.03;;
12312;SDS011;6220;53.580;9.758;2024-02-14T12:58:13;7.63;;;6.83;;
12312;SDS011;6220;53.580;9.758;2024-02-14T13:00:38;8.93;;;6.63;;
12312;SDS011;6220;53.580;9.758;2024-02-14T13:03:03;8.30;;;7.07;;
12312;SDS011;6220;53.580;9.758;2024-02-14T13:05:30;10.30;;;7.77;;
12312;SDS011;6220;53.580;9.758;2024-02-14T13:07:56;9.10;;;7.90;;
12312;SDS011;6220;53.580;9.758;2024-02-14T13:10:22;9.40;;;7.60;;
12312;SDS011;6220;53.580;9.758;2024-02-14T13:12:48;9.03;;;8.20;;
12312;SDS011;6220;53.580;9.758;2024-02-14T13:15:15;8.73;;;7.93;;
12312;SDS011;6220;53.580;9.758;2024-02-14T13:17:43;8.90;;;8.00;;
12312;SDS011;6220;53.580;9.758;2024-02-14T13:20:10;9.10;;;8.20;;
12312;SDS011;6220;53.580;9.758;2024-02-14T13:22:37;9.60;;;8.60;;
12312;SDS011;6220;53.580;9.758;2024-02-14T13:25:03;8.63;;;7.83;;
12312;SDS011;6220;53.580;9.758;2024-02-14T13:27:30;9.93;;;8.20;;
12312;SDS011;6220;53.580;9.758;2024-02-14T13:29:55;9.27;;;8.47;;
12312;SDS011;6220;53.580;9.758;2024-02-14T13:32:24;9.63;;;8.73;;
12312;SDS011;6220;53.580;9.758;2024-02-14T13:34:50;9.27;;;8.17;;
12312;SDS011;6220;53.580;9.758;2024-02-14T13:37:15;9.30;;;8.40;;
12312;SDS011;6220;53.580;9.758;2024-02-14T13:39:41;9.50;;;8.50;;
12312;SDS011;6220;53.580;9.758;2024-02-14T13:42:10;9.30;;;8.13;;
12312;SDS011;6220;53.580;9.758;2024-02-14T13:44:36;8.70;;;7.80;;
12312;SDS011;6220;53.580;9.758;2024-02-14T13:47:01;9.23;;;8.30;;
12312;SDS011;6220;53.580;9.758;2024-02-14T13:49:28;9.50;;;8.50;;
12312;SDS011;6220;53.580;9.758;2024-02-14T13:51:53;9.20;;;8.30;;
12312;SDS011;6220;53.580;9.758;2024-02-14T13:54:20;8.90;;;8.00;;
12312;SDS011;6220;53.580;9.758;2024-02-14T13:56:48;9.43;;;8.53;;
12312;SDS011;6220;53.580;9.758;2024-02-14T13:59:14;9.37;;;8.37;;
12312;SDS011;6220;53.580;9.758;2024-02-14T14:01:40;9.70;;;8.77;;
12312;SDS011;6220;53.580;9.758;2024-02-14T14:04:07;9.87;;;8.77;;
12312;SDS011;6220;53.580;9.758;2024-02-14T14:06:32;8.97;;;8.17;;
12312;SDS011;6220;53.580;9.758;2024-02-14T14:08:59;10.33;;;9.33;;
12312;SDS011;6220;53.580;9.758;2024-02-14T14:11:25;9.87;;;8.87;;
12312;SDS011;6220;53.580;9.758;2024-02-14T14:13:50;9.77;;;8.87;;
12312;SDS011;6220;53.580;9.758;2024-02-14T14:16:16;8.73;;;7.87;;
12312;SDS011;6220;53.580;9.758;2024-02-14T14:18:44;9.37;;;8.47;;
12312;SDS011;6220;53.580;9.758;2024-02-14T14:21:11;9.50;;;8.60;;
12312;SDS011;6220;53.580;9.758;2024-02-14T14:23:37;9.67;;;8.73;;
12312;SDS011;6220;53.580;9.758;2024-02-14T14:26:03;9.93;;;9.00;;
12312;SDS011;6220;53.580;9.758;2024-02-14T14:28:31;9.70;;;8.70;;
12312;SDS011;6220;53.580;9.758;2024-02-14T14:30:57;9.00;;;8.10;;
12312;SDS011;6220;53.580;9.758;2024-02-14T14:33:24;9.90;;;8.90;;
12312;SDS011;6220;53.580;9.758;2024-02-14T14:35:50;10.50;;;9.40;;
12312;SDS011;6220;53.580;9.758;2024-02-14T14:38:19;9.40;;;8.37;;
12312;SDS011;6220;53.580;9.758;2024-02-14T14:40:44;10.20;;;9.30;;
12312;SDS011;6220;53.580;9.758;2024-02-14T14:43:13;10.37;;;9.37;;
12312;SDS011;6220;53.580;9.758;2024-02-14T14:45:38;10.40;;;9.40;;
12312;SDS011;6220;53.580;9.758;2024-02-14T14:48:04;10.00;;;9.00;;
12312;SDS011;6220;53.580;9.758;2024-02-14T14:50:30;10.77;;;9.47;;
12312;SDS011;6220;53.580;9.758;2024-02-14T14:52:56;9.97;;;8.97;;
12312;SDS011;6220;53.580;9.758;2024-02-14T14:55:22;10.50;;;9.00;;
12312;SDS011;6220;53.580;9.758;2024-02-14T14:57:47;10.30;;;8.40;;